Time;durP1;ratioP1;P1;durP2;ratioP2;P2;SDS_P1;SDS_P2;PMS_P1;PMS_P2;Temp;Humidity;BMP_temperature;BMP_pressure;BME280_temperature;BME280_humidity;BME280_pressure;Samples;Min_cycle;Max_cycle;Signal;HPM_P1;HPM_P2
2021/12/16 00:01:50;;;;;;;4.37;2.42;;;9.30;72.70;;;;;;2324532;54;20975;-81
2021/12/16 00:08:29;;;;;;;3.45;1.87;;;9.30;72.80;;;;;;2546650;53;20955;-81
2021/12/16 00:11:13;;;;;;;3.97;2.00;;;9.20;72.60;;;;;;2569166;53;20976;-82
2021/12/16 00:30:15;;;;;;;5.50;2.22;;;9.10;72.60;;;;;;2570251;53;20932;-81
2021/12/16 00:35:16;;;;;;;4.70;2.50;;;9.00;72.50;;;;;;2558340;53;21988;-81
2021/12/16 00:37:43;;;;;;;5.72;3.08;;;9.00;72.50;;;;;;2557290;53;21003;-82
2021/12/16 00:40:11;;;;;;;4.78;2.25;;;9.10;72.60;;;;;;2555555;53;20951;-82
2021/12/16 00:43:15;;;;;;;4.32;2.17;;;9.00;72.50;;;;;;2557575;53;20966;-82
2021/12/16 00:45:56;;;;;;;3.95;2.08;;;9.00;72.60;;;;;;2316771;54;21070;-82
2021/12/16 00:48:25;;;;;;;3.83;1.73;;;9.00;72.60;;;;;;2294981;54;20994;-81
2021/12/16 00:54:25;;;;;;;6.03;2.97;;;9.00;72.50;;;;;;2575642;53;20939;-81
2021/12/16 00:56:57;;;;;;;10.68;5.62;;;9.00;72.50;;;;;;2575406;53;21000;-82
2021/12/16 00:59:26;;;;;;;8.35;4.40;;;9.00;72.50;;;;;;2523797;54;21016;-82
2021/12/16 01:02:10;;;;;;;6.87;3.53;;;8.90;72.40;;;;;;2307794;54;20892;-80
2021/12/16 01:05:08;;;;;;;5.37;2.58;;;9.00;72.50;;;;;;2573676;53;20916;-81
2021/12/16 01:08:23;;;;;;;4.10;1.92;;;8.90;72.50;;;;;;2539057;53;20955;-81
2021/12/16 01:35:48;;;;;;;2.83;1.58;;;8.90;72.90;;;;;;2565020;53;20968;-82
2021/12/16 01:41:48;;;;;;;2.80;1.27;;;8.90;72.90;;;;;;2526063;54;20955;-80
2021/12/16 01:47:35;;;;;;;2.40;1.10;;;8.90;72.80;;;;;;2341600;54;20959;-82
2021/12/16 01:50:07;;;;;;;2.70;1.20;;;8.90;72.80;;;;;;2570239;53;20932;-81
2021/12/16 01:55:28;;;;;;;2.70;1.20;;;8.90;72.60;;;;;;2560350;53;21148;-81
2021/12/16 01:58:00;;;;;;;2.78;1.30;;;8.90;72.40;;;;;;2329274;54;21078;-81
2021/12/16 02:00:44;;;;;;;2.83;1.33;;;8.80;72.50;;;;;;2557822;53;20937;-81
2021/12/16 02:03:10;;;;;;;2.95;1.35;;;8.80;72.40;;;;;;2319218;54;20995;-82
2021/12/16 02:05:57;;;;;;;2.50;1.30;;;8.80;72.50;;;;;;2557027;53;21769;-81
2021/12/16 02:08:27;;;;;;;4.05;1.52;;;8.80;72.50;;;;;;2557378;53;20963;-81
2021/12/16 02:11:17;;;;;;;3.37;1.60;;;8.80;72.50;;;;;;2558455;53;21281;-82
2021/12/16 02:32:13;;;;;;;2.78;0.90;;;8.70;72.50;;;;;;2324732;54;20960;-80
2021/12/16 02:35:00;;;;;;;3.28;1.70;;;8.70;72.60;;;;;;2565365;53;20997;-81
2021/12/16 02:37:30;;;;;;;2.70;1.30;;;8.60;72.50;;;;;;2576210;53;21490;-81
2021/12/16 02:39:57;;;;;;;3.80;1.80;;;8.70;72.70;;;;;;2556194;53;21652;-81
2021/12/16 02:42:33;;;;;;;2.97;1.45;;;8.70;72.70;;;;;;2325726;54;21433;-81
2021/12/16 02:50:42;;;;;;;2.92;1.33;;;8.60;72.80;;;;;;2323881;54;21371;-82
2021/12/16 02:53:09;;;;;;;2.55;1.25;;;8.60;72.80;;;;;;2345894;54;21028;-81
2021/12/16 02:55:35;;;;;;;3.17;1.48;;;8.60;72.80;;;;;;2555583;53;20986;-81
2021/12/16 02:58:01;;;;;;;3.22;1.30;;;8.60;72.80;;;;;;2557696;53;20963;-80
2021/12/16 03:00:30;;;;;;;3.67;1.60;;;8.60;72.80;;;;;;2574323;53;21276;-82
2021/12/16 03:02:56;;;;;;;3.03;1.30;;;8.60;72.80;;;;;;2557443;53;20912;-81
2021/12/16 03:05:22;;;;;;;3.50;1.73;;;8.60;72.80;;;;;;2317292;54;21465;-81
2021/12/16 03:07:50;;;;;;;3.72;1.90;;;8.70;72.90;;;;;;2328151;54;20920;-80
2021/12/16 03:17:13;;;;;;;2.78;1.25;;;8.70;72.90;;;;;;2317962;54;20947;-81
2021/12/16 03:19:58;;;;;;;3.33;1.62;;;8.70;73.00;;;;;;2317888;54;20958;-81
2021/12/16 03:29:31;;;;;;;3.05;1.40;;;8.70;73.10;;;;;;2321363;54;21007;-82
2021/12/16 03:36:13;;;;;;;2.83;1.23;;;8.70;73.10;;;;;;2575145;53;20979;-82
2021/12/16 03:38:41;;;;;;;2.80;1.33;;;8.70;73.00;;;;;;2330968;54;21055;-81
2021/12/16 03:41:08;;;;;;;2.58;1.17;;;8.70;72.90;;;;;;2561113;53;20899;-81
2021/12/16 03:43:35;;;;;;;2.92;1.40;;;8.70;72.90;;;;;;2536651;53;22026;-81
2021/12/16 03:48:55;;;;;;;2.62;1.15;;;8.70;73.00;;;;;;2344410;54;20999;-83
2021/12/16 03:52:22;;;;;;;3.55;1.52;;;8.70;72.90;;;;;;2547196;53;21376;-81
2021/12/16 03:54:50;;;;;;;3.65;1.30;;;8.80;72.10;;;;;;2552645;53;21082;-81
2021/12/16 03:57:18;;;;;;;2.60;1.23;;;8.70;72.80;;;;;;2557607;53;21339;-81
2021/12/16 03:59:45;;;;;;;2.45;1.30;;;8.70;72.80;;;;;;2562836;53;20979;-81
2021/12/16 04:02:23;;;;;;;3.05;1.42;;;8.70;72.70;;;;;;2564297;53;20978;-81
2021/12/16 04:04:51;;;;;;;3.17;1.37;;;8.70;72.60;;;;;;2333443;54;20944;-81
2021/12/16 04:07:19;;;;;;;2.87;1.20;;;8.70;72.50;;;;;;2568541;53;20955;-80
2021/12/16 04:09:47;;;;;;;3.00;1.50;;;8.70;72.50;;;;;;2564989;53;20972;-80
2021/12/16 04:12:18;;;;;;;2.70;1.30;;;8.70;72.50;;;;;;2571010;53;21959;-80
2021/12/16 04:14:45;;;;;;;3.58;1.77;;;8.70;72.40;;;;;;2317014;54;20943;-81
2021/12/16 04:17:11;;;;;;;2.80;1.30;;;8.70;72.30;;;;;;2525561;54;21738;-81
2021/12/16 04:19:38;;;;;;;2.50;0.95;;;8.60;72.20;;;;;;2556245;53;20943;-80
2021/12/16 04:22:16;;;;;;;2.83;1.27;;;8.60;72.10;;;;;;2559010;53;22361;-82
2021/12/16 04:24:42;;;;;;;2.65;1.10;;;8.60;72.00;;;;;;2328608;54;20955;-80
2021/12/16 04:27:09;;;;;;;4.57;1.15;;;8.50;72.00;;;;;;2324365;54;20981;-81
2021/12/16 04:29:35;;;;;;;2.53;1.00;;;8.40;71.90;;;;;;2329829;54;20927;-81
2021/12/16 04:32:01;;;;;;;1.65;0.80;;;8.50;72.10;;;;;;2326565;54;21006;-81
2021/12/16 04:34:28;;;;;;;2.22;0.82;;;8.50;72.10;;;;;;2574202;53;21023;-82
2021/12/16 04:36:54;;;;;;;1.90;0.80;;;8.50;72.10;;;;;;2330168;54;21015;-81
2021/12/16 04:39:23;;;;;;;2.03;0.80;;;8.40;72.00;;;;;;2568757;53;20959;-80
2021/12/16 04:41:50;;;;;;;1.85;0.70;;;8.40;72.00;;;;;;2557090;53;21395;-81
2021/12/16 04:44:17;;;;;;;1.90;0.90;;;8.40;72.10;;;;;;2558194;53;21030;-80
2021/12/16 04:46:43;;;;;;;2.20;0.93;;;8.40;72.10;;;;;;2557743;53;20907;-81
2021/12/16 04:49:10;;;;;;;1.85;0.85;;;8.40;72.20;;;;;;2326617;54;21715;-81
2021/12/16 04:51:40;;;;;;;1.90;0.93;;;8.40;72.30;;;;;;2575057;53;20956;-81
2021/12/16 04:54:06;;;;;;;1.55;0.70;;;8.40;72.30;;;;;;2569521;53;21007;-81
2021/12/16 04:56:33;;;;;;;2.33;1.10;;;8.40;72.40;;;;;;2573100;53;20980;-81
2021/12/16 04:59:03;;;;;;;2.47;0.90;;;8.30;72.40;;;;;;2574786;53;20927;-81
2021/12/16 05:01:30;;;;;;;1.40;0.68;;;8.30;72.60;;;;;;2558514;53;21783;-81
2021/12/16 05:03:57;;;;;;;1.80;0.80;;;8.40;72.70;;;;;;2559501;53;21916;-81
2021/12/16 05:06:23;;;;;;;1.65;0.80;;;8.30;72.70;;;;;;2573274;53;21003;-81
2021/12/16 05:08:49;;;;;;;2.15;0.82;;;8.40;72.90;;;;;;2575413;53;20954;-80
2021/12/16 05:11:16;;;;;;;2.45;0.88;;;8.30;72.80;;;;;;2318162;54;21063;-80
2021/12/16 05:13:42;;;;;;;2.62;1.05;;;8.40;72.90;;;;;;2557565;53;20918;-81
2021/12/16 05:16:09;;;;;;;1.65;0.75;;;8.40;72.90;;;;;;2317917;54;20951;-81
2021/12/16 05:18:37;;;;;;;2.22;0.90;;;8.40;72.90;;;;;;2557643;53;21787;-81
2021/12/16 05:21:16;;;;;;;1.80;0.80;;;8.40;72.90;;;;;;2317061;54;21026;-80
2021/12/16 05:26:27;;;;;;;3.83;1.10;;;8.40;72.80;;;;;;2558094;53;20969;-81
2021/12/16 05:28:55;;;;;;;2.35;1.15;;;8.40;72.90;;;;;;2314019;54;20943;-80
2021/12/16 05:31:23;;;;;;;3.00;1.70;;;8.40;72.80;;;;;;2313501;54;21368;-81
2021/12/16 05:33:50;;;;;;;3.42;1.70;;;8.40;72.80;;;;;;2552724;53;21314;-81
2021/12/16 05:36:16;;;;;;;3.20;1.50;;;8.40;72.80;;;;;;2560156;53;20951;-81
2021/12/16 05:38:42;;;;;;;3.05;1.60;;;8.40;72.80;;;;;;2561482;53;21003;-80
2021/12/16 05:41:10;;;;;;;2.00;1.02;;;8.40;72.80;;;;;;2551804;53;21043;-81
2021/12/16 05:43:36;;;;;;;2.83;1.40;;;8.40;72.80;;;;;;2313423;54;21743;-81
2021/12/16 05:46:03;;;;;;;4.10;1.85;;;8.40;72.90;;;;;;2328880;54;20943;-82
2021/12/16 05:48:30;;;;;;;4.40;2.08;;;8.40;72.90;;;;;;2316402;54;20999;-81
2021/12/16 05:51:00;;;;;;;4.07;1.87;;;8.40;72.90;;;;;;2575902;53;21419;-81
2021/12/16 05:53:26;;;;;;;3.90;1.83;;;8.40;72.90;;;;;;2569207;53;20912;-80
2021/12/16 05:55:52;;;;;;;4.40;2.20;;;8.40;72.90;;;;;;2568195;53;20975;-80
2021/12/16 05:58:20;;;;;;;4.05;1.85;;;8.40;73.00;;;;;;2323413;54;21058;-81
2021/12/16 06:00:48;;;;;;;4.10;1.90;;;8.40;73.70;;;;;;2335196;54;21395;-82
2021/12/16 06:03:16;;;;;;;4.18;2.15;;;8.40;73.10;;;;;;2572688;53;20960;-81
2021/12/16 06:05:42;;;;;;;4.25;1.80;;;8.40;73.10;;;;;;2574330;53;21033;-84
2021/12/16 06:08:08;;;;;;;3.10;1.73;;;8.40;73.10;;;;;;2567564;53;21016;-82
2021/12/16 06:13:22;;;;;;;3.85;1.65;;;8.40;73.10;;;;;;2336768;54;20939;-81
2021/12/16 06:22:20;;;;;;;3.55;1.58;;;8.40;73.10;;;;;;2563984;53;20988;-82
2021/12/16 06:27:33;;;;;;;4.00;1.60;;;8.50;73.30;;;;;;2546608;53;20941;-81
2021/12/16 06:29:59;;;;;;;4.47;2.15;;;8.50;73.00;;;;;;2573874;53;20947;-82
2021/12/16 06:32:26;;;;;;;4.87;2.40;;;8.50;73.10;;;;;;2547358;53;21031;-82
2021/12/16 06:34:53;;;;;;;4.53;2.37;;;8.50;73.20;;;;;;2562454;53;21040;-82
2021/12/16 06:37:20;;;;;;;5.68;2.40;;;8.50;73.30;;;;;;2572347;53;20932;-81
2021/12/16 06:39:46;;;;;;;4.70;2.47;;;8.50;73.30;;;;;;2577436;53;21295;-82
2021/12/16 06:42:13;;;;;;;4.50;2.22;;;8.50;73.40;;;;;;2572580;53;21027;-82
2021/12/16 06:45:28;;;;;;;5.03;2.72;;;8.50;74.20;;;;;;2546741;54;20959;-81
2021/12/16 06:48:00;;;;;;;4.05;1.80;;;8.50;73.50;;;;;;2339453;54;21007;-83
2021/12/16 06:50:47;;;;;;;3.05;1.52;;;8.50;73.40;;;;;;2338149;54;21924;-81
2021/12/16 06:53:18;;;;;;;3.55;1.65;;;8.50;73.30;;;;;;2344478;54;21293;-80
2021/12/16 06:55:51;;;;;;;3.17;1.58;;;8.60;73.50;;;;;;2570265;53;21230;-81
2021/12/16 06:58:46;;;;;;;3.45;1.62;;;8.60;73.50;;;;;;2572939;53;21446;-81
2021/12/16 07:01:30;;;;;;;3.05;1.35;;;8.60;73.40;;;;;;2549382;53;21007;-82
2021/12/16 07:03:56;;;;;;;4.20;1.55;;;8.60;73.30;;;;;;2579204;53;20895;-82
2021/12/16 07:06:26;;;;;;;3.12;1.52;;;8.60;73.20;;;;;;2572955;53;21077;-81
2021/12/16 07:09:04;;;;;;;3.05;1.52;;;8.60;73.00;;;;;;2571497;53;21305;-82
2021/12/16 07:11:36;;;;;;;3.55;1.83;;;8.60;73.00;;;;;;2570185;53;20995;-82
2021/12/16 07:14:04;;;;;;;3.53;1.70;;;8.60;73.00;;;;;;2574456;53;20944;-81
2021/12/16 07:16:30;;;;;;;3.62;1.75;;;8.50;72.80;;;;;;2572342;53;20991;-80
2021/12/16 07:18:57;;;;;;;4.22;2.10;;;8.50;72.80;;;;;;2572141;53;21015;-79
2021/12/16 07:21:23;;;;;;;3.72;2.05;;;8.50;72.90;;;;;;2554875;53;21016;-82
2021/12/16 07:23:50;;;;;;;3.87;2.12;;;8.60;73.10;;;;;;2567020;53;20935;-80
2021/12/16 07:26:17;;;;;;;4.05;1.90;;;8.50;73.10;;;;;;2562271;53;20908;-82
2021/12/16 07:28:43;;;;;;;3.80;1.92;;;8.50;73.10;;;;;;2576089;53;21345;-82
2021/12/16 07:31:09;;;;;;;4.00;2.37;;;8.50;73.20;;;;;;2576036;53;21856;-80
2021/12/16 07:33:36;;;;;;;3.53;2.05;;;8.50;73.30;;;;;;2574796;53;20967;-81
2021/12/16 07:36:02;;;;;;;4.40;2.35;;;8.50;73.30;;;;;;2572554;53;21393;-80
2021/12/16 07:38:29;;;;;;;3.60;2.10;;;8.60;73.50;;;;;;2332235;54;21981;-81
2021/12/16 07:40:57;;;;;;;5.70;2.00;;;8.60;73.50;;;;;;2574628;53;21003;-80
2021/12/16 07:43:30;;;;;;;4.87;2.45;;;8.60;73.50;;;;;;2565526;53;21017;-81
2021/12/16 07:45:56;;;;;;;3.70;1.98;;;8.60;73.50;;;;;;2563759;53;20987;-81
2021/12/16 07:48:24;;;;;;;5.00;2.40;;;8.60;73.40;;;;;;2574715;53;20963;-82
2021/12/16 07:50:54;;;;;;;3.75;2.00;;;8.60;73.30;;;;;;2576714;53;20955;-81
2021/12/16 07:53:20;;;;;;;3.83;2.22;;;8.60;73.30;;;;;;2576333;53;20959;-80
2021/12/16 07:55:47;;;;;;;6.75;2.12;;;8.60;73.40;;;;;;2342349;54;21481;-80
2021/12/16 07:58:13;;;;;;;4.53;2.65;;;8.60;73.50;;;;;;2570663;53;21008;-81
2021/12/16 08:00:40;;;;;;;4.28;2.42;;;8.60;73.50;;;;;;2323220;54;21006;-81
2021/12/16 08:03:07;;;;;;;3.97;2.20;;;8.70;73.50;;;;;;2334915;54;20990;-82
2021/12/16 08:05:36;;;;;;;4.15;2.40;;;8.70;73.50;;;;;;2538184;53;21042;-81
2021/12/16 08:08:03;;;;;;;4.07;2.22;;;8.70;73.50;;;;;;2341340;54;21418;-81
2021/12/16 08:10:29;;;;;;;3.90;2.10;;;8.70;73.50;;;;;;2560983;53;20927;-81
2021/12/16 08:12:55;;;;;;;3.70;1.62;;;8.70;73.50;;;;;;2321173;54;22415;-81
2021/12/16 08:15:22;;;;;;;4.10;2.03;;;8.70;73.50;;;;;;2576385;53;20962;-81
2021/12/16 08:17:48;;;;;;;3.60;1.75;;;8.70;73.50;;;;;;2576452;53;20936;-82
2021/12/16 08:20:16;;;;;;;3.33;1.75;;;8.70;73.60;;;;;;2572677;53;20996;-81
2021/12/16 08:22:47;;;;;;;4.35;2.12;;;8.70;73.50;;;;;;2329525;54;20935;-80
2021/12/16 08:25:13;;;;;;;3.25;1.90;;;8.70;73.50;;;;;;2574681;53;20956;-80
2021/12/16 08:27:40;;;;;;;3.47;1.80;;;8.70;73.60;;;;;;2575044;53;20978;-80
2021/12/16 08:30:08;;;;;;;3.85;1.95;;;8.80;73.70;;;;;;2571183;53;20952;-81
2021/12/16 08:32:34;;;;;;;3.75;2.03;;;8.80;73.80;;;;;;2571564;53;20960;-80
2021/12/16 08:35:01;;;;;;;6.20;2.03;;;8.90;74.00;;;;;;2522732;53;21267;-81
2021/12/16 08:37:27;;;;;;;4.00;2.22;;;8.80;73.90;;;;;;2332822;54;21050;-80
2021/12/16 08:39:56;;;;;;;5.95;2.40;;;8.80;74.00;;;;;;2579070;53;20916;-80
2021/12/16 08:42:22;;;;;;;4.25;2.53;;;8.90;74.00;;;;;;2528304;53;21021;-80
2021/12/16 08:44:48;;;;;;;5.85;2.58;;;8.90;74.00;;;;;;2565385;53;20939;-80
2021/12/16 08:47:17;;;;;;;4.25;2.37;;;8.90;74.00;;;;;;2576220;53;20951;-80
2021/12/16 08:49:43;;;;;;;5.72;3.17;;;8.90;74.00;;;;;;2550114;53;21006;-80
2021/12/16 08:52:12;;;;;;;4.93;2.78;;;9.00;74.10;;;;;;2576031;53;20979;-81
2021/12/16 08:54:38;;;;;;;4.80;2.60;;;9.00;74.10;;;;;;2575929;53;20900;-80
2021/12/16 08:57:05;;;;;;;4.40;2.42;;;9.00;74.10;;;;;;2576219;53;20906;-80
2021/12/16 08:59:31;;;;;;;4.90;2.60;;;9.00;74.20;;;;;;2578025;53;21067;-81
2021/12/16 09:01:58;;;;;;;5.15;3.10;;;9.10;74.30;;;;;;2566052;53;20975;-81
2021/12/16 09:04:25;;;;;;;5.40;3.05;;;9.10;74.40;;;;;;2535976;53;20946;-80
2021/12/16 09:06:52;;;;;;;4.80;2.85;;;9.10;74.40;;;;;;2312435;54;21010;-81
2021/12/16 09:09:19;;;;;;;4.97;2.72;;;9.20;74.40;;;;;;2565216;53;20991;-80
2021/12/16 09:12:02;;;;;;;5.72;3.10;;;9.20;74.40;;;;;;2577268;53;21053;-81
2021/12/16 09:14:28;;;;;;;6.45;3.08;;;9.20;74.40;;;;;;2578683;53;20896;-80
2021/12/16 09:16:55;;;;;;;5.10;3.15;;;9.30;74.40;;;;;;2345542;54;21317;-80
2021/12/16 09:19:21;;;;;;;5.10;3.03;;;9.30;74.40;;;;;;2558227;53;21422;-80
2021/12/16 09:21:47;;;;;;;4.80;2.72;;;9.40;74.30;;;;;;2563095;53;21043;-80
2021/12/16 09:24:14;;;;;;;5.97;3.72;;;9.40;74.30;;;;;;2575142;53;21894;-80
2021/12/16 09:26:42;;;;;;;6.80;4.28;;;9.40;74.30;;;;;;2316960;54;20948;-80
2021/12/16 09:29:08;;;;;;;5.47;3.53;;;9.50;74.30;;;;;;2560589;53;21609;-80
2021/12/16 09:31:34;;;;;;;5.87;3.75;;;9.50;74.30;;;;;;2336621;54;21415;-80
2021/12/16 09:34:07;;;;;;;6.43;4.12;;;9.50;74.30;;;;;;2569954;53;21912;-80
2021/12/16 09:36:35;;;;;;;5.93;3.70;;;9.50;74.30;;;;;;2571443;53;20931;-81
2021/12/16 09:39:02;;;;;;;5.22;3.30;;;9.60;74.30;;;;;;2576042;53;20916;-80
2021/12/16 09:41:28;;;;;;;6.32;3.80;;;9.60;74.30;;;;;;2561708;53;20912;-80
2021/12/16 09:43:55;;;;;;;6.75;4.18;;;9.60;74.30;;;;;;2331792;54;20944;-80
2021/12/16 09:46:23;;;;;;;8.27;4.20;;;9.70;74.40;;;;;;2569445;53;20967;-80
2021/12/16 09:48:50;;;;;;;6.35;3.58;;;9.70;74.30;;;;;;2343034;54;20924;-81
2021/12/16 09:51:22;;;;;;;6.05;3.60;;;9.70;74.20;;;;;;2572305;53;20999;-80
2021/12/16 09:53:51;;;;;;;5.35;3.65;;;9.70;74.20;;;;;;2329649;54;21323;-81
2021/12/16 09:56:18;;;;;;;6.00;3.70;;;9.80;74.20;;;;;;2331608;54;21834;-80
2021/12/16 09:58:46;;;;;;;6.22;4.22;;;9.80;74.20;;;;;;2572500;53;20979;-80
2021/12/16 10:01:12;;;;;;;8.98;4.20;;;9.80;74.20;;;;;;2343368;54;21805;-80
2021/12/16 10:03:40;;;;;;;6.00;3.78;;;9.80;74.10;;;;;;2576170;53;21074;-80
2021/12/16 10:06:06;;;;;;;7.07;4.25;;;9.90;74.20;;;;;;2340529;54;20944;-81
2021/12/16 10:08:32;;;;;;;7.20;4.40;;;9.90;74.20;;;;;;2341243;54;20935;-80
2021/12/16 10:10:58;;;;;;;7.62;4.85;;;9.90;74.00;;;;;;2324529;54;21003;-81
2021/12/16 10:13:37;;;;;;;7.75;4.47;;;9.90;73.90;;;;;;2565531;53;21810;-80
2021/12/16 10:18:48;;;;;;;6.50;3.75;;;10.00;72.90;;;;;;2546452;53;21051;-80
2021/12/16 10:21:20;;;;;;;6.40;4.18;;;10.00;72.90;;;;;;2541593;53;21971;-80
2021/12/16 10:23:46;;;;;;;6.10;3.92;;;10.10;72.90;;;;;;2339821;54;20955;-80
2021/12/16 10:26:18;;;;;;;7.18;4.32;;;10.10;73.00;;;;;;2334411;54;20972;-81
2021/12/16 10:28:46;;;;;;;8.05;4.32;;;10.10;72.80;;;;;;2576789;53;20983;-80
2021/12/16 10:31:26;;;;;;;7.82;4.85;;;10.10;72.90;;;;;;2575641;53;21007;-80
2021/12/16 10:33:58;;;;;;;6.43;4.07;;;10.20;72.60;;;;;;2572075;53;20971;-80
2021/12/16 10:36:36;;;;;;;7.63;4.83;;;10.20;72.90;;;;;;2577947;53;21983;-80
2021/12/16 10:39:13;;;;;;;7.55;4.68;;;10.20;72.90;;;;;;2570586;53;20928;-80
2021/12/16 10:41:59;;;;;;;6.37;4.22;;;10.30;72.70;;;;;;2560831;53;21031;-80
2021/12/16 10:44:29;;;;;;;7.15;3.95;;;10.30;72.70;;;;;;2328306;54;21812;-80
2021/12/16 10:47:03;;;;;;;7.40;4.33;;;10.30;72.90;;;;;;2338021;54;21575;-79
2021/12/16 10:49:43;;;;;;;7.53;4.53;;;10.30;72.90;;;;;;2333847;54;21023;-81
2021/12/16 10:52:13;;;;;;;7.53;4.75;;;10.40;72.60;;;;;;2336160;54;21008;-81
2021/12/16 10:54:41;;;;;;;8.40;4.95;;;10.40;72.90;;;;;;2558061;53;20940;-81
2021/12/16 10:57:15;;;;;;;6.80;4.47;;;10.40;72.90;;;;;;2569532;53;21876;-80
2021/12/16 10:59:46;;;;;;;7.68;5.18;;;10.50;72.90;;;;;;2572041;53;21014;-80
2021/12/16 11:02:36;;;;;;;9.20;5.10;;;10.50;72.80;;;;;;2574503;53;20953;-80
2021/12/16 11:05:21;;;;;;;8.20;5.03;;;10.50;72.50;;;;;;2572306;53;20974;-80
2021/12/16 11:07:52;;;;;;;7.28;4.78;;;10.50;72.20;;;;;;2318919;54;20908;-80
2021/12/16 11:10:29;;;;;;;7.80;4.87;;;10.50;72.80;;;;;;2534825;53;21524;-80
2021/12/16 11:13:07;;;;;;;8.93;5.75;;;10.60;72.60;;;;;;2539977;53;21066;-80
2021/12/16 11:15:35;;;;;;;8.75;5.57;;;10.60;72.70;;;;;;2308793;54;21031;-80
2021/12/16 11:18:37;;;;;;;7.72;4.95;;;10.60;72.60;;;;;;2574279;53;21051;-81
2021/12/16 11:21:05;;;;;;;8.20;5.00;;;10.70;72.70;;;;;;2576466;53;20943;-81
2021/12/16 11:23:44;;;;;;;8.60;4.97;;;10.70;72.80;;;;;;2576501;53;21022;-80
2021/12/16 11:26:16;;;;;;;6.85;4.22;;;10.70;72.80;;;;;;2336503;54;20995;-81
2021/12/16 11:28:51;;;;;;;6.75;4.30;;;10.70;72.80;;;;;;2346890;54;20912;-80
2021/12/16 11:31:20;;;;;;;7.72;5.20;;;10.80;72.80;;;;;;2537826;53;21566;-80
2021/12/16 11:33:48;;;;;;;7.25;4.20;;;10.80;73.00;;;;;;2567915;53;20943;-80
2021/12/16 11:36:28;;;;;;;7.28;4.32;;;10.80;73.00;;;;;;2341581;54;20944;-80
2021/12/16 11:39:04;;;;;;;6.85;4.18;;;10.80;72.80;;;;;;2329062;54;20970;-80
2021/12/16 11:41:38;;;;;;;8.07;4.47;;;10.80;72.90;;;;;;2563324;53;21422;-80
2021/12/16 11:44:33;;;;;;;7.87;4.30;;;10.90;72.80;;;;;;2568172;53;20984;-80
2021/12/16 11:47:02;;;;;;;7.78;4.43;;;10.90;72.10;;;;;;2550695;53;21027;-81
2021/12/16 11:49:37;;;;;;;6.32;4.28;;;10.90;72.60;;;;;;2347037;54;20959;-80
2021/12/16 11:52:26;;;;;;;5.65;3.83;;;10.90;72.20;;;;;;2486681;53;2812678;-80
2021/12/16 11:55:00;;;;;;;6.70;3.85;;;10.90;72.50;;;;;;2533899;53;21773;-80
2021/12/16 11:57:53;;;;;;;5.85;3.80;;;10.90;72.40;;;;;;2571220;53;21532;-80
2021/12/16 12:00:29;;;;;;;;;;;10.90;72.30;;;;;;2567863;53;20895;-81
2021/12/16 12:03:00;;;;;;;4.75;2.97;;;11.00;71.40;;;;;;2567137;53;20159;-81
2021/12/16 12:05:44;;;;;;;5.35;3.33;;;11.00;72.40;;;;;;2310466;54;20936;-80
2021/12/16 12:08:23;;;;;;;5.85;3.47;;;11.00;72.20;;;;;;2576813;53;20950;-80
2021/12/16 12:11:28;;;;;;;5.65;3.40;;;11.00;72.40;;;;;;2574397;53;20940;-80
2021/12/16 12:13:57;;;;;;;8.50;3.58;;;11.00;71.80;;;;;;2562638;53;21007;-81
2021/12/16 12:16:43;;;;;;;5.68;3.42;;;11.00;72.80;;;;;;2551774;53;20920;-80
2021/12/16 12:19:21;;;;;;;6.85;4.10;;;11.10;72.20;;;;;;2332879;54;20938;-80
2021/12/16 12:22:00;;;;;;;6.97;3.70;;;11.10;72.90;;;;;;2576573;53;20984;-80
2021/12/16 12:24:40;;;;;;;6.30;3.97;;;11.10;72.80;;;;;;2566215;53;21013;-80
2021/12/16 12:27:12;;;;;;;6.72;3.90;;;11.10;72.90;;;;;;2332489;54;21021;-81
2021/12/16 12:30:15;;;;;;;7.37;4.70;;;11.10;72.70;;;;;;2567107;53;20951;-80
2021/12/16 12:32:43;;;;;;;6.15;3.55;;;11.20;72.70;;;;;;2576603;53;21047;-80
2021/12/16 12:35:20;;;;;;;6.82;4.30;;;11.20;72.70;;;;;;2340239;54;20947;-81
2021/12/16 12:37:49;;;;;;;6.37;4.07;;;11.20;72.30;;;;;;2577102;53;20915;-80
2021/12/16 12:40:28;;;;;;;5.78;3.45;;;11.10;72.40;;;;;;2337536;54;20991;-81
2021/12/16 12:42:55;;;;;;;6.10;3.85;;;11.20;72.30;;;;;;2565643;53;20907;-81
2021/12/16 12:45:24;;;;;;;5.60;3.30;;;11.20;72.60;;;;;;2577082;53;20952;-80
2021/12/16 12:47:53;;;;;;;5.25;3.05;;;11.20;72.60;;;;;;2320957;54;21056;-81
2021/12/16 12:50:28;;;;;;;6.37;3.37;;;11.20;72.60;;;;;;2338355;54;20924;-81
2021/12/16 12:52:55;;;;;;;4.87;3.30;;;11.20;72.60;;;;;;2339828;54;21011;-81
2021/12/16 12:55:29;;;;;;;5.40;3.40;;;11.30;72.70;;;;;;2576005;53;22122;-80
2021/12/16 12:58:15;;;;;;;6.03;3.95;;;11.30;72.60;;;;;;2313366;54;21007;-80
2021/12/16 13:00:47;;;;;;;5.28;3.80;;;11.30;72.10;;;;;;2341251;54;21003;-81
2021/12/16 13:04:02;;;;;;;5.18;3.35;;;11.30;72.50;;;;;;2328524;54;20971;-79
2021/12/16 13:06:28;;;;;;;;;;;11.30;71.70;;;;;;2573783;53;20935;-80
2021/12/16 13:08:54;;;;;;;3.78;2.20;;;11.30;71.60;;;;;;2574260;53;20142;-81
2021/12/16 13:11:28;;;;;;;5.15;3.12;;;11.30;72.80;;;;;;2323174;54;21205;-81
2021/12/16 13:14:21;;;;;;;5.25;3.40;;;11.40;72.70;;;;;;2309243;54;21089;-80
2021/12/16 13:29:32;;;;;;;5.53;3.30;;;11.50;71.90;;;;;;2578906;53;21029;-81
2021/12/16 13:35:11;;;;;;;5.95;3.62;;;11.40;72.40;;;;;;2330411;54;20976;-81
2021/12/16 13:37:42;;;;;;;6.15;4.18;;;11.40;72.20;;;;;;2563823;53;21808;-81
2021/12/16 13:40:31;;;;;;;7.12;4.20;;;11.40;72.20;;;;;;2574121;53;20991;-80
2021/12/16 13:43:10;;;;;;;7.45;4.30;;;11.40;71.90;;;;;;2533468;53;21050;-81
2021/12/16 13:45:49;;;;;;;7.30;4.55;;;11.40;72.10;;;;;;2321484;54;20952;-81
2021/12/16 13:49:15;;;;;;;6.30;4.05;;;11.50;72.30;;;;;;2298277;54;20978;-81
2021/12/16 14:01:09;;;;;;;7.20;4.25;;;11.40;72.10;;;;;;2336443;54;20907;-81
2021/12/16 14:04:36;;;;;;;6.05;3.95;;;11.40;71.50;;;;;;2562568;53;20891;-81
2021/12/16 14:07:26;;;;;;;5.80;3.65;;;11.40;71.90;;;;;;2577221;53;20931;-80
2021/12/16 14:10:17;;;;;;;6.55;3.80;;;11.40;72.20;;;;;;2575153;53;22114;-80
2021/12/16 14:16:16;;;;;;;5.75;3.85;;;11.40;71.40;;;;;;2558570;53;20959;-81
2021/12/16 14:25:19;;;;;;;6.75;3.78;;;11.30;71.80;;;;;;2576422;53;20944;-80
2021/12/16 14:34:54;;;;;;;7.07;4.50;;;11.30;72.00;;;;;;2577872;53;21001;-80
2021/12/16 14:37:34;;;;;;;6.93;4.15;;;11.30;71.90;;;;;;2573384;53;21047;-80
2021/12/16 14:40:27;;;;;;;6.28;4.12;;;11.30;71.90;;;;;;2338016;54;21010;-80
2021/12/16 14:45:44;;;;;;;7.47;4.53;;;11.30;71.90;;;;;;2573327;53;20975;-81
2021/12/16 14:48:28;;;;;;;6.90;4.57;;;11.30;71.90;;;;;;2568937;53;20943;-81
2021/12/16 14:50:58;;;;;;;8.00;4.55;;;11.20;71.50;;;;;;2554028;53;20940;-81
2021/12/16 14:53:33;;;;;;;10.05;5.72;;;11.20;71.70;;;;;;2576780;53;21034;-80
2021/12/16 14:56:10;;;;;;;9.57;5.12;;;11.20;71.50;;;;;;2345650;54;20951;-80
2021/12/16 14:58:37;;;;;;;9.60;5.65;;;11.20;71.50;;;;;;2576726;53;21073;-81
2021/12/16 15:01:13;;;;;;;8.95;5.10;;;11.20;71.60;;;;;;2337295;54;20943;-80
2021/12/16 15:03:41;;;;;;;9.50;5.75;;;11.10;71.20;;;;;;2573204;53;20927;-81
2021/12/16 15:06:22;;;;;;;7.87;5.15;;;11.10;71.40;;;;;;2566847;53;20928;-80
2021/12/16 15:40:28;;;;;;;5.93;3.50;;;10.80;71.40;;;;;;2573794;53;21003;-80
2021/12/16 15:42:57;;;;;;;7.68;4.32;;;10.80;71.40;;;;;;2564220;53;20983;-81
2021/12/16 15:45:32;;;;;;;7.43;4.62;;;10.80;71.40;;;;;;2570306;53;20904;-81
2021/12/16 15:48:23;;;;;;;7.35;4.35;;;10.70;71.20;;;;;;2555440;53;21123;-81
2021/12/16 15:50:58;;;;;;;6.90;4.47;;;10.70;70.70;;;;;;2341262;54;20943;-81
2021/12/16 15:53:30;;;;;;;6.37;4.28;;;10.70;71.30;;;;;;2334767;54;20955;-80
2021/12/16 15:56:06;;;;;;;7.37;4.18;;;10.70;71.40;;;;;;2547652;53;21743;-81
2021/12/16 15:58:37;;;;;;;7.90;4.12;;;10.60;71.10;;;;;;2334625;54;20943;-81
2021/12/16 16:01:07;;;;;;;9.93;4.90;;;10.60;71.00;;;;;;2337506;54;21509;-80
2021/12/16 16:03:33;;;;;;;8.30;5.65;;;10.60;70.90;;;;;;2566061;53;20974;-81
2021/12/16 16:06:02;;;;;;;8.57;4.97;;;10.50;70.80;;;;;;2334451;54;21019;-81
2021/12/16 16:08:30;;;;;;;8.13;5.07;;;10.50;70.70;;;;;;2567500;53;20959;-81
2021/12/16 16:11:00;;;;;;;7.60;5.28;;;10.40;71.30;;;;;;2303422;54;21096;-81
2021/12/16 16:13:29;;;;;;;6.53;4.43;;;10.40;70.70;;;;;;2571699;53;20991;-80
2021/12/16 16:15:59;;;;;;;8.45;4.80;;;10.40;70.70;;;;;;2343750;54;20919;-81
2021/12/16 16:18:35;;;;;;;7.95;5.05;;;10.40;70.70;;;;;;2339226;54;20968;-80
2021/12/16 16:21:19;;;;;;;7.90;4.62;;;10.30;70.60;;;;;;2572361;53;20935;-80
2021/12/16 16:23:48;;;;;;;6.93;4.40;;;10.30;70.20;;;;;;2569224;53;21044;-80
2021/12/16 16:26:14;;;;;;;7.18;4.62;;;10.20;70.20;;;;;;2337471;54;20900;-80
2021/12/16 16:28:42;;;;;;;8.60;4.72;;;10.20;70.10;;;;;;2571329;53;21613;-80
2021/12/16 16:31:09;;;;;;;6.28;3.97;;;10.10;69.80;;;;;;2323325;54;20958;-81
2021/12/16 16:33:36;;;;;;;9.02;4.97;;;10.00;69.60;;;;;;2576112;53;20959;-81
2021/12/16 16:36:07;;;;;;;7.32;4.90;;;10.00;69.30;;;;;;2574064;53;20971;-80
2021/12/16 16:38:43;;;;;;;7.43;5.20;;;9.90;70.00;;;;;;2340825;54;20939;-81
2021/12/16 16:41:17;;;;;;;7.97;4.80;;;9.80;69.70;;;;;;2557659;53;20991;-81